Time;durP1;ratioP1;P1;durP2;ratioP2;P2;SDS_P1;SDS_P2;PMS_P1;PMS_P2;Temp;Humidity;BMP_temperature;BMP_pressure;BME280_temperature;BME280_humidity;BME280_pressure;Samples;Min_cycle;Max_cycle;Signal;HPM_P1;HPM_P2
2022/11/24 00:00:49;;;;;;;4.40;1.90;;;;;;;6.33;89.00;99717.75;5034148;28;20233;-82
2022/11/24 00:03:15;;;;;;;4.27;1.57;;;;;;;6.32;89.46;99709.91;5033873;28;20217;-82
2022/11/24 00:05:42;;;;;;;4.27;2.70;;;;;;;6.31;89.43;99714.34;5034369;28;20210;-82
2022/11/24 00:08:09;;;;;;;6.67;2.70;;;;;;;6.31;89.65;99718.78;5033785;28;20206;-82
2022/11/24 00:10:35;;;;;;;5.37;2.93;;;;;;;6.31;89.94;99713.47;5033613;28;20767;-82
2022/11/24 00:13:02;;;;;;;3.77;1.87;;;;;;;6.31;90.06;99714.34;5033948;28;20209;-82
2022/11/24 00:15:28;;;;;;;5.37;2.77;;;;;;;6.34;90.31;99718.59;5033483;28;20237;-81
2022/11/24 00:17:56;;;;;;;2.33;1.67;;;;;;;6.34;91.01;99718.59;5033321;28;20213;-82
2022/11/24 00:20:22;;;;;;;5.80;2.30;;;;;;;6.37;91.26;99713.97;5033779;28;20708;-82
2022/11/24 00:22:49;;;;;;;6.13;2.20;;;;;;;6.38;91.32;99714.81;5033772;28;20210;-82
2022/11/24 00:25:15;;;;;;;4.23;2.57;;;;;;;6.39;91.28;99713.88;5033793;28;20206;-82
2022/11/24 00:27:42;;;;;;;2.70;1.97;;;;;;;6.38;91.15;99722.75;5034120;28;20202;-81
2022/11/24 00:30:09;;;;;;;5.47;1.90;;;;;;;6.41;91.73;99712.00;5033658;28;20231;-82
2022/11/24 00:32:35;;;;;;;7.03;2.00;;;;;;;6.39;92.11;99719.16;5033648;28;20211;-82
2022/11/24 00:35:04;;;;;;;3.77;1.90;;;;;;;6.38;92.12;99733.34;5033613;28;20214;-82
2022/11/24 00:37:30;;;;;;;3.00;1.70;;;;;;;6.39;92.16;99727.09;5033183;28;20230;-82
2022/11/24 00:39:57;;;;;;;2.93;1.73;;;;;;;6.43;91.82;99728.63;5033458;28;20229;-81
2022/11/24 00:42:23;;;;;;;4.57;2.23;;;;;;;6.45;92.49;99739.97;5033802;28;20217;-82
2022/11/24 00:44:50;;;;;;;3.07;1.90;;;;;;;6.46;92.13;99744.28;5033791;28;20211;-82
2022/11/24 00:47:16;;;;;;;3.27;1.97;;;;;;;6.46;92.07;99752.22;5033221;28;20206;-82
2022/11/24 00:49:43;;;;;;;6.53;2.67;;;;;;;6.45;91.84;99754.00;5033291;28;20234;-82
2022/11/24 00:52:10;;;;;;;3.00;1.97;;;;;;;6.45;92.32;99758.47;5032408;28;20206;-81
2022/11/24 00:54:37;;;;;;;6.73;2.20;;;;;;;6.47;91.92;99756.56;5033117;28;20209;-82
2022/11/24 00:57:03;;;;;;;5.03;2.23;;;;;;;6.48;91.92;99763.56;5032751;28;20234;-82
2022/11/24 00:59:31;;;;;;;4.73;2.43;;;;;;;6.48;92.12;99752.97;5032832;28;20206;-82
2022/11/24 01:01:57;;;;;;;5.67;2.07;;;;;;;6.47;92.36;99762.72;5032878;28;20202;-83
2022/11/24 01:04:24;;;;;;;5.00;2.20;;;;;;;6.47;92.24;99756.56;5033700;28;20657;-82
2022/11/24 01:06:50;;;;;;;4.07;2.47;;;;;;;6.47;92.40;99761.84;5033484;28;20206;-82
2022/11/24 01:09:18;;;;;;;5.03;2.13;;;;;;;6.47;92.56;99764.50;5033504;28;20214;-82
2022/11/24 01:12:03;;;;;;;5.73;2.20;;;;;;;6.47;92.46;99767.16;5033155;28;20237;-82
2022/11/24 01:14:31;;;;;;;4.67;2.20;;;;;;;6.49;92.44;99765.25;5033120;28;20190;-82
2022/11/24 01:16:57;;;;;;;5.23;2.30;;;;;;;6.49;92.40;99767.91;5035649;28;20233;-82
2022/11/24 01:19:24;;;;;;;5.73;2.23;;;;;;;6.48;92.33;99763.56;5048659;28;20202;-82
2022/11/24 01:21:51;;;;;;;6.50;2.27;;;;;;;6.48;92.12;99767.06;5032625;28;20573;-82
2022/11/24 01:24:19;;;;;;;5.13;2.73;;;;;;;6.50;92.49;99769.63;5046405;28;20653;-82
2022/11/24 01:26:45;;;;;;;5.47;2.87;;;;;;;6.49;92.08;99770.56;5052474;28;20738;-82
2022/11/24 01:29:12;;;;;;;5.77;2.40;;;;;;;6.48;92.57;99777.63;5052433;28;20206;-82
2022/11/24 01:31:38;;;;;;;4.33;2.00;;;;;;;6.47;92.62;99772.44;5052904;28;20225;-82
2022/11/24 01:34:05;;;;;;;4.37;2.40;;;;;;;6.47;92.15;99769.78;5052476;28;20216;-82
2022/11/24 01:36:31;;;;;;;3.60;2.30;;;;;;;6.45;92.18;99772.53;5052395;28;20584;-82
2022/11/24 01:38:58;;;;;;;4.63;2.13;;;;;;;6.43;92.27;99763.88;5052312;28;20210;-82
2022/11/24 01:41:26;;;;;;;4.77;2.27;;;;;;;6.41;92.29;99768.38;5052133;28;20240;-82
2022/11/24 01:43:54;;;;;;;5.40;2.40;;;;;;;6.39;92.44;99775.56;5052383;28;20205;-82
2022/11/24 01:46:24;;;;;;;4.53;2.40;;;;;;;6.36;91.91;99774.88;5051970;28;20205;-82
2022/11/24 01:48:55;;;;;;;7.77;2.60;;;;;;;6.33;91.95;99775.91;5052299;28;20201;-82
2022/11/24 01:51:25;;;;;;;6.53;2.40;;;;;;;6.29;92.86;99784.97;5051968;28;20232;-82
2022/11/24 01:53:56;;;;;;;4.17;2.37;;;;;;;6.30;92.37;99786.66;5052199;28;20572;-82
2022/11/24 01:56:24;;;;;;;6.27;2.43;;;;;;;6.30;92.01;99793.75;5051691;28;20220;-82
2022/11/24 01:58:57;;;;;;;5.53;2.77;;;;;;;6.27;92.43;99792.13;5051773;28;20903;-82
2022/11/24 02:01:24;;;;;;;4.40;2.10;;;;;;;6.27;92.91;99797.44;5051430;28;20225;-82
2022/11/24 02:03:52;;;;;;;3.83;2.20;;;;;;;6.27;92.47;99794.78;5050488;28;20297;-82
2022/11/24 02:06:22;;;;;;;9.20;2.70;;;;;;;6.27;93.06;99787.69;5051680;28;20205;-82
2022/11/24 02:08:53;;;;;;;3.53;2.03;;;;;;;6.28;93.09;99794.69;5051493;28;20204;-82
2022/11/24 02:11:22;;;;;;;6.93;2.30;;;;;;;6.28;93.45;99794.69;5051423;28;20229;-82
2022/11/24 02:13:53;;;;;;;5.60;2.23;;;;;;;6.29;93.14;99792.91;5051491;28;20656;-82
2022/11/24 02:16:19;;;;;;;6.77;2.20;;;;;;;6.32;93.29;99794.53;5051009;28;20597;-82
2022/11/24 02:18:46;;;;;;;6.77;2.50;;;;;;;6.30;93.33;99794.59;5048853;28;20205;-82
2022/11/24 02:21:14;;;;;;;4.03;2.50;;;;;;;6.30;93.67;99785.81;5041186;28;20600;-82
2022/11/24 02:23:47;;;;;;;5.30;2.13;;;;;;;6.31;93.85;99792.81;5031821;28;20214;-82
2022/11/24 02:26:21;;;;;;;8.17;2.50;;;;;;;6.30;93.26;99786.66;5031686;28;20723;-82
2022/11/24 02:28:50;;;;;;;9.47;2.50;;;;;;;6.33;94.23;99783.00;5032704;28;20653;-82
2022/11/24 02:31:16;;;;;;;8.37;2.10;;;;;;;6.36;93.92;99791.59;5051775;28;20268;-82
2022/11/24 02:33:43;;;;;;;5.27;2.93;;;;;;;6.39;94.51;99796.72;5051754;28;20202;-82
2022/11/24 02:36:09;;;;;;;6.70;2.20;;;;;;;6.44;94.13;99796.44;5051500;28;20717;-81
2022/11/24 02:38:36;;;;;;;7.37;2.10;;;;;;;6.49;94.89;99802.28;5051332;28;20248;-81
2022/11/24 02:41:07;;;;;;;5.90;2.50;;;;;;;6.52;95.14;99796.81;5051655;28;20229;-82
2022/11/24 02:43:39;;;;;;;7.30;2.50;;;;;;;6.55;95.25;99797.50;5051315;28;20644;-81
2022/11/24 02:46:07;;;;;;;6.93;2.50;;;;;;;6.57;95.47;99800.06;5051166;28;20192;-82
2022/11/24 02:48:33;;;;;;;6.67;2.43;;;;;;;6.59;95.75;99808.75;5051153;28;20213;-82
2022/11/24 02:51:00;;;;;;;5.87;2.10;;;;;;;6.59;95.09;99811.41;5051190;28;20566;-82
2022/11/24 02:53:26;;;;;;;8.77;2.07;;;;;;;6.59;95.67;99819.34;5050694;28;20218;-82
2022/11/24 02:55:53;;;;;;;9.80;3.37;;;;;;;6.62;95.36;99821.81;5050849;28;20210;-81
2022/11/24 02:58:19;;;;;;;7.20;2.30;;;;;;;6.61;95.27;99817.44;5051093;28;20564;-81
2022/11/24 03:00:46;;;;;;;7.50;2.33;;;;;;;6.63;95.49;99826.13;5041971;28;20640;-82
2022/11/24 03:03:14;;;;;;;7.43;2.47;;;;;;;6.67;95.42;99829.44;5051040;28;20206;-82
2022/11/24 03:05:40;;;;;;;4.60;2.30;;;;;;;6.66;95.86;99825.94;5052151;28;20250;-82
2022/11/24 03:08:07;;;;;;;8.20;2.53;;;;;;;6.67;95.63;99830.28;5052248;28;20216;-82
2022/11/24 03:10:33;;;;;;;8.17;2.20;;;;;;;6.68;95.80;99829.34;5051664;28;20244;-82
2022/11/24 03:13:00;;;;;;;8.10;2.50;;;;;;;6.70;95.77;99835.41;5053074;28;20205;-82
2022/11/24 03:15:26;;;;;;;5.20;2.10;;;;;;;6.71;95.60;99831.81;5052394;28;20220;-82
2022/11/24 03:17:55;;;;;;;5.80;2.20;;;;;;;6.73;95.45;99847.59;5051550;28;20241;-82
2022/11/24 03:20:24;;;;;;;8.50;2.57;;;;;;;6.75;95.82;99845.72;5051084;28;20225;-82
2022/11/24 03:22:50;;;;;;;7.87;2.30;;;;;;;6.74;95.48;99852.81;5051152;28;20217;-82
2022/11/24 03:25:17;;;;;;;5.70;2.20;;;;;;;6.75;95.25;99849.22;5050613;28;20209;-82
2022/11/24 03:27:44;;;;;;;7.10;2.30;;;;;;;6.78;95.75;99850.84;5050622;28;20207;-82
2022/11/24 03:30:11;;;;;;;10.23;2.83;;;;;;;6.78;95.30;99856.13;5050729;28;20583;-82
2022/11/24 03:32:38;;;;;;;5.37;2.33;;;;;;;6.81;95.86;99855.91;5050827;28;20218;-82
2022/11/24 03:35:05;;;;;;;8.30;2.23;;;;;;;6.83;95.84;99851.38;5050655;28;20206;-82
2022/11/24 03:37:33;;;;;;;7.23;2.23;;;;;;;6.86;95.80;99848.56;5033959;28;20237;-81
2022/11/24 03:40:00;;;;;;;7.63;2.60;;;;;;;6.86;95.35;99861.78;5033274;28;20570;-82
2022/11/24 03:42:26;;;;;;;5.33;2.40;;;;;;;6.86;94.99;99857.34;5033359;28;20214;-82
2022/11/24 03:44:52;;;;;;;6.00;2.60;;;;;;;6.86;95.39;99853.84;5030553;28;20202;-82
2022/11/24 03:47:19;;;;;;;5.80;2.43;;;;;;;6.83;94.57;99854.88;5035706;28;20205;-82
2022/11/24 03:49:46;;;;;;;5.27;2.70;;;;;;;6.81;94.47;99854.13;5038601;28;20229;-83
2022/11/24 03:52:12;;;;;;;6.03;3.00;;;;;;;6.78;94.75;99854.34;5036521;28;20201;-83
2022/11/24 03:54:41;;;;;;;8.23;2.90;;;;;;;6.78;94.21;99848.19;5028754;28;20218;-83
2022/11/24 03:57:07;;;;;;;7.20;2.63;;;;;;;6.74;94.43;99855.44;5041140;28;20229;-82
2022/11/24 03:59:34;;;;;;;6.17;2.27;;;;;;;6.73;94.34;99853.75;5031767;28;20202;-83
2022/11/24 04:02:00;;;;;;;8.90;2.90;;;;;;;6.73;94.57;99863.47;5024173;28;20210;-82
2022/11/24 04:04:27;;;;;;;7.73;2.90;;;;;;;6.72;94.70;99862.63;5020963;28;20215;-82
2022/11/24 04:06:53;;;;;;;6.57;2.83;;;;;;;6.72;94.30;99870.56;5031366;28;20199;-83
2022/11/24 04:09:20;;;;;;;7.43;3.10;;;;;;;6.71;94.61;99873.31;5036444;28;20209;-83
2022/11/24 04:14:31;;;;;;;4.30;2.57;;;;;;;6.67;94.05;99877.91;5041655;28;21755;-82
2022/11/24 04:16:58;;;;;;;9.07;3.17;;;;;;;6.64;94.35;99883.38;5039484;28;20234;-83
2022/11/24 04:19:24;;;;;;;6.47;3.03;;;;;;;6.60;94.41;99889.81;5036435;28;20202;-83
2022/11/24 04:21:51;;;;;;;6.20;2.90;;;;;;;6.57;94.27;99896.16;5036713;28;20207;-83
2022/11/24 04:24:17;;;;;;;7.33;3.37;;;;;;;6.54;93.72;99892.81;5034607;28;20211;-82
2022/11/24 04:26:44;;;;;;;8.73;3.10;;;;;;;6.51;94.05;99900.94;5044182;28;20216;-82
2022/11/24 04:29:12;;;;;;;6.60;3.70;;;;;;;6.48;94.01;99899.31;5035692;28;20214;-82
2022/11/24 04:31:38;;;;;;;6.77;2.77;;;;;;;6.44;93.89;99904.91;5033614;28;20229;-82
2022/11/24 04:34:05;;;;;;;10.67;2.97;;;;;;;6.41;93.47;99905.06;5029852;28;20209;-82
2022/11/24 04:36:31;;;;;;;9.23;3.40;;;;;;;6.38;94.04;99906.09;5034043;28;20202;-84
2022/11/24 04:38:58;;;;;;;7.30;3.13;;;;;;;6.36;94.07;99913.25;5046408;28;20205;-82
2022/11/24 04:41:24;;;;;;;9.37;3.00;;;;;;;6.35;93.84;99905.41;5031142;28;20233;-83
2022/11/24 04:43:51;;;;;;;7.40;2.83;;;;;;;6.36;94.21;99918.56;5035927;28;20214;-83
2022/11/24 04:46:18;;;;;;;5.50;3.03;;;;;;;6.36;94.35;99920.34;5026846;28;20202;-84
2022/11/24 04:48:45;;;;;;;7.60;2.77;;;;;;;6.36;94.44;99923.84;5041557;28;20206;-83
2022/11/24 04:51:13;;;;;;;6.17;2.90;;;;;;;6.37;94.45;99924.69;5041845;28;20221;-83
2022/11/24 04:53:39;;;;;;;8.17;3.30;;;;;;;6.38;94.51;99919.31;5041905;28;20206;-83
2022/11/24 04:56:07;;;;;;;6.63;3.63;;;;;;;6.39;94.72;99933.41;5039495;28;20216;-83
2022/11/24 04:58:33;;;;;;;9.23;3.47;;;;;;;6.40;95.14;99935.09;5028154;28;20233;-82
2022/11/24 05:01:00;;;;;;;12.87;3.70;;;;;;;6.39;94.62;99930.75;5034793;28;20222;-82
2022/11/24 05:03:27;;;;;;;9.00;3.33;;;;;;;6.40;94.90;99935.09;5029756;28;20653;-83
2022/11/24 05:05:54;;;;;;;6.40;3.60;;;;;;;6.39;94.70;99938.69;5025847;28;20579;-85
2022/11/24 05:08:20;;;;;;;6.67;3.17;;;;;;;6.37;94.98;99938.78;5028844;28;20203;-84
2022/11/24 05:10:46;;;;;;;9.17;3.63;;;;;;;6.38;95.13;99950.22;5035045;28;20256;-83
2022/11/24 05:13:14;;;;;;;10.13;2.90;;;;;;;6.37;95.01;99944.06;5041365;28;20216;-83
2022/11/24 05:15:41;;;;;;;9.20;3.30;;;;;;;6.38;95.02;99944.91;5039238;28;20207;-83
2022/11/24 05:18:10;;;;;;;8.23;3.40;;;;;;;6.36;95.32;99952.94;5020219;28;20225;-83
2022/11/24 05:20:39;;;;;;;8.47;3.87;;;;;;;6.37;95.50;99956.44;5025529;28;20227;-84
2022/11/24 05:23:07;;;;;;;9.13;3.50;;;;;;;6.37;95.61;99956.44;5036200;28;20586;-83
2022/11/24 05:25:35;;;;;;;8.27;3.00;;;;;;;6.35;95.17;99955.66;5034345;28;20198;-85
2022/11/24 05:28:02;;;;;;;6.90;3.73;;;;;;;6.34;95.41;99949.53;5037898;28;20206;-83
2022/11/24 05:30:29;;;;;;;8.50;3.37;;;;;;;6.34;95.29;99951.31;5041332;28;20225;-85
2022/11/24 05:32:56;;;;;;;10.20;3.60;;;;;;;6.33;95.40;99954.91;5042374;28;20268;-82
2022/11/24 05:35:23;;;;;;;7.80;3.60;;;;;;;6.32;95.12;99958.47;5040013;28;20197;-85
2022/11/24 05:37:50;;;;;;;7.80;3.37;;;;;;;6.27;95.10;99959.59;5034726;28;20229;-84
2022/11/24 05:40:17;;;;;;;8.23;3.10;;;;;;;6.26;95.18;99968.47;5032168;28;20704;-83
2022/11/24 05:42:43;;;;;;;11.37;3.10;;;;;;;6.25;95.28;99969.44;5030134;28;20207;-84
2022/11/24 05:45:12;;;;;;;9.67;3.17;;;;;;;6.21;95.65;99973.16;5032140;28;20240;-82
2022/11/24 05:47:40;;;;;;;8.50;4.17;;;;;;;6.20;94.97;99981.19;5025467;28;20202;-83
2022/11/24 05:50:08;;;;;;;9.90;3.83;;;;;;;6.17;95.58;99981.34;5025534;28;20701;-83
2022/11/24 05:52:35;;;;;;;7.07;3.20;;;;;;;6.16;95.34;99984.94;5025247;28;20642;-83
2022/11/24 05:55:03;;;;;;;8.03;2.93;;;;;;;6.14;95.15;99982.38;5026628;28;20218;-83
2022/11/24 05:57:29;;;;;;;7.73;3.37;;;;;;;6.10;95.46;99983.47;5024290;28;20276;-83
2022/11/24 05:59:56;;;;;;;6.03;3.43;;;;;;;6.08;95.03;99982.72;5028949;28;20233;-83
2022/11/24 06:02:22;;;;;;;7.83;3.30;;;;;;;6.07;95.38;99986.31;5021242;28;20213;-82
2022/11/24 06:04:49;;;;;;;9.27;3.10;;;;;;;6.06;95.20;99992.53;5023556;28;20213;-85
2022/11/24 06:07:15;;;;;;;11.00;3.47;;;;;;;6.05;95.34;99993.47;5023566;28;20645;-84
2022/11/24 06:09:42;;;;;;;6.47;3.07;;;;;;;6.03;95.51;99992.69;5021681;28;20215;-83
2022/11/24 06:12:13;;;;;;;7.57;3.47;;;;;;;6.01;95.64;99997.22;5030435;28;20214;-83
2022/11/24 06:14:39;;;;;;;7.67;3.03;;;;;;;6.00;95.23;99994.66;5036733;28;20195;-82
2022/11/24 06:17:06;;;;;;;7.70;3.20;;;;;;;5.98;95.91;99996.53;5030496;28;20679;-84
2022/11/24 06:19:33;;;;;;;8.23;3.57;;;;;;;5.96;95.80;100003.69;5036993;28;20198;-84
2022/11/24 06:21:59;;;;;;;7.80;3.77;;;;;;;5.92;95.76;100003.00;5028837;28;20199;-83
2022/11/24 06:24:26;;;;;;;11.57;3.73;;;;;;;5.91;95.89;100012.69;5038367;28;20693;-83
2022/11/24 06:26:52;;;;;;;6.20;3.27;;;;;;;5.88;95.87;100018.19;5036174;28;20290;-83
2022/11/24 06:29:20;;;;;;;8.53;3.63;;;;;;;5.86;95.76;100019.16;5036664;28;20213;-83
2022/11/24 06:31:47;;;;;;;10.90;4.67;;;;;;;5.84;95.72;100027.16;5027929;28;20221;-84
2022/11/24 06:34:13;;;;;;;6.90;3.30;;;;;;;5.84;95.95;100019.25;5037207;28;20210;-83
2022/11/24 06:36:40;;;;;;;9.70;4.10;;;;;;;5.84;96.19;100023.66;5030044;28;20197;-85
2022/11/24 06:39:07;;;;;;;7.03;3.83;;;;;;;5.84;96.25;100023.66;5035645;28;20230;-85
2022/11/24 06:41:33;;;;;;;7.17;3.57;;;;;;;5.85;96.62;100025.38;5040057;28;20222;-84
2022/11/24 06:44:02;;;;;;;11.87;3.90;;;;;;;5.85;96.56;100028.03;5033040;28;20281;-84
2022/11/24 06:46:30;;;;;;;6.57;3.60;;;;;;;5.86;96.44;100029.72;5041098;28;20292;-84
2022/11/24 06:48:58;;;;;;;7.03;3.77;;;;;;;5.84;96.31;100032.47;5031860;28;20202;-84
2022/11/24 06:51:25;;;;;;;6.60;3.30;;;;;;;5.83;96.61;100030.75;5036397;28;20226;-85
2022/11/24 06:53:52;;;;;;;6.03;3.93;;;;;;;5.83;96.86;100035.19;5038365;28;20198;-85
2022/11/24 06:56:20;;;;;;;8.97;4.13;;;;;;;5.82;97.24;100036.97;5040594;28;20203;-85
2022/11/24 06:58:48;;;;;;;8.37;3.97;;;;;;;5.82;96.85;100038.75;5044305;28;20275;-84
2022/11/24 07:01:15;;;;;;;10.00;3.97;;;;;;;5.82;97.34;100033.47;5037622;28;20214;-85
2022/11/24 07:03:43;;;;;;;9.10;4.03;;;;;;;5.85;97.28;100033.31;5030192;28;20345;-85
2022/11/24 07:06:10;;;;;;;9.13;3.73;;;;;;;5.85;96.98;100028.03;5033985;28;20202;-85
2022/11/24 07:08:36;;;;;;;9.03;4.17;;;;;;;5.86;97.69;100033.22;5039401;28;20202;-84
2022/11/24 07:11:07;;;;;;;11.63;4.30;;;;;;;5.89;97.56;100040.19;5038427;28;20238;-84
2022/11/24 07:13:33;;;;;;;10.17;3.97;;;;;;;5.92;97.69;100046.13;5035029;28;20228;-84
2022/11/24 07:16:00;;;;;;;9.90;3.03;;;;;;;5.96;98.03;100046.81;5033232;28;20803;-84
2022/11/24 07:18:27;;;;;;;8.30;3.60;;;;;;;5.98;98.10;100039.66;5032821;28;20230;-84
2022/11/24 07:20:55;;;;;;;8.50;3.07;;;;;;;6.02;98.61;100046.50;5032481;28;20222;-84
2022/11/24 07:23:21;;;;;;;24.17;5.97;;;;;;;6.08;98.16;100061.19;5039720;28;20212;-84
2022/11/24 07:25:48;;;;;;;23.23;6.10;;;;;;;6.11;98.42;100055.69;5022037;28;20207;-84
2022/11/24 07:28:14;;;;;;;11.60;3.70;;;;;;;6.13;98.83;100054.69;5037709;28;20624;-84
2022/11/24 07:30:41;;;;;;;9.03;3.53;;;;;;;6.16;98.73;100056.31;5033748;28;20226;-84
2022/11/24 07:33:07;;;;;;;18.47;5.40;;;;;;;6.19;98.72;100069.38;5033035;28;20210;-84
2022/11/24 07:35:34;;;;;;;9.47;3.23;;;;;;;6.20;98.67;100064.00;5033221;28;20569;-83
2022/11/24 07:38:01;;;;;;;7.63;3.30;;;;;;;6.23;98.64;100079.72;5035914;28;20230;-84
2022/11/24 07:40:28;;;;;;;10.03;3.40;;;;;;;6.25;99.01;100077.84;5032595;28;20230;-83
2022/11/24 07:42:54;;;;;;;9.13;3.00;;;;;;;6.25;98.67;100091.06;5029966;28;20235;-84
2022/11/24 07:45:21;;;;;;;10.03;3.10;;;;;;;6.26;98.72;100092.78;5033674;28;20209;-84
2022/11/24 07:47:47;;;;;;;8.70;2.90;;;;;;;6.27;98.73;100098.88;5035396;28;20568;-84
2022/11/24 07:50:14;;;;;;;10.17;2.83;;;;;;;6.28;98.91;100098.81;5022244;28;20237;-84
2022/11/24 07:52:40;;;;;;;6.50;2.73;;;;;;;6.30;99.00;100103.16;5027034;28;20206;-84
2022/11/24 07:55:09;;;;;;;5.77;2.97;;;;;;;6.33;99.02;100103.00;5027607;28;20213;-84
2022/11/24 07:57:36;;;;;;;9.30;3.67;;;;;;;6.37;99.19;100093.97;5020346;28;20586;-84
2022/11/24 08:00:04;;;;;;;12.10;4.57;;;;;;;6.41;99.13;100098.16;5031679;28;20230;-84
2022/11/24 08:02:31;;;;;;;9.37;3.50;;;;;;;6.43;99.32;100099.78;5030561;28;20208;-83
2022/11/24 08:04:57;;;;;;;7.43;3.33;;;;;;;6.46;99.13;100099.59;5033391;28;20210;-84
2022/11/24 08:07:24;;;;;;;8.10;3.23;;;;;;;6.50;99.51;100102.91;5033414;28;20202;-84
2022/11/24 08:09:51;;;;;;;8.10;3.30;;;;;;;6.53;99.22;100095.66;5031918;28;20236;-84
2022/11/24 08:12:20;;;;;;;9.33;3.20;;;;;;;6.55;99.28;100101.72;5038859;28;20730;-84
2022/11/24 08:14:48;;;;;;;7.10;2.77;;;;;;;6.55;99.41;100106.19;5034426;28;20206;-85
2022/11/24 08:17:15;;;;;;;7.70;2.80;;;;;;;6.60;99.11;100106.78;5039168;28;20213;-85
2022/11/24 08:19:41;;;;;;;9.63;2.83;;;;;;;6.67;99.63;100118.72;5034534;28;20222;-84
2022/11/24 08:22:08;;;;;;;10.47;2.70;;;;;;;6.70;99.12;100121.19;5033024;28;20206;-84
2022/11/24 08:24:34;;;;;;;7.17;3.13;;;;;;;6.74;99.12;100120.09;5037913;28;20205;-84
2022/11/24 08:27:01;;;;;;;10.50;3.03;;;;;;;6.78;99.53;100123.44;5033452;28;20210;-84
2022/11/24 08:29:29;;;;;;;8.60;2.93;;;;;;;6.83;99.16;100116.91;5041959;28;20631;-84
2022/11/24 08:31:57;;;;;;;7.50;3.00;;;;;;;6.86;99.20;100116.75;5027094;28;20566;-84
2022/11/24 08:34:23;;;;;;;6.97;2.10;;;;;;;6.91;99.53;100121.78;5024089;28;20240;-84
2022/11/24 08:36:50;;;;;;;6.73;2.00;;;;;;;6.98;99.26;100128.44;5018760;28;20238;-84
2022/11/24 08:39:16;;;;;;;9.43;2.77;;;;;;;7.03;99.53;100133.47;5015364;28;20233;-84
2022/11/24 08:41:43;;;;;;;7.67;2.17;;;;;;;7.06;99.41;100134.16;5018574;28;20314;-84
2022/11/24 08:44:10;;;;;;;6.37;2.10;;;;;;;7.13;98.82;100127.56;5027877;28;20206;-84
2022/11/24 08:46:38;;;;;;;8.70;2.30;;;;;;;7.15;98.85;100138.06;5026477;28;20693;-84
2022/11/24 08:49:05;;;;;;;8.07;2.30;;;;;;;7.18;98.57;100140.53;5019580;28;20661;-84
2022/11/24 08:51:31;;;;;;;5.60;2.67;;;;;;;7.22;98.16;100152.66;5026795;28;20222;-84
2022/11/24 08:54:01;;;;;;;5.80;2.10;;;;;;;7.23;97.33;100154.38;5018210;28;20226;-84
2022/11/24 08:56:29;;;;;;;7.37;2.07;;;;;;;7.27;97.69;100162.06;5024689;28;20577;-84
2022/11/24 08:58:56;;;;;;;11.70;2.57;;;;;;;7.29;97.13;100164.63;5024704;28;20221;-84
2022/11/24 09:01:23;;;;;;;9.97;2.53;;;;;;;7.30;97.51;100171.63;5019434;28;20226;-84
2022/11/24 09:03:51;;;;;;;8.93;2.37;;;;;;;7.36;97.45;100175.69;5024337;28;20198;-84
2022/11/24 09:06:22;;;;;;;11.70;3.10;;;;;;;7.39;97.42;100180.81;5024154;28;20214;-84
2022/11/24 09:08:48;;;;;;;7.90;2.40;;;;;;;7.41;97.54;100185.09;5022984;28;20202;-85
2022/11/24 09:11:16;;;;;;;9.20;2.43;;;;;;;7.43;97.05;100188.50;5023540;28;20230;-84
2022/11/24 09:13:46;;;;;;;12.97;2.80;;;;;;;7.49;96.90;100190.81;5016853;28;20211;-84
2022/11/24 09:16:16;;;;;;;8.17;2.43;;;;;;;7.54;97.32;100196.69;5020834;28;20213;-84
2022/11/24 09:18:43;;;;;;;9.13;2.70;;;;;;;7.59;97.50;100201.72;5022365;28;20222;-84
2022/11/24 09:21:13;;;;;;;8.67;2.93;;;;;;;7.62;97.45;100197.09;5023512;28;20248;-84
2022/11/24 09:23:40;;;;;;;7.00;2.03;;;;;;;7.66;97.11;100200.44;5023603;28;20205;-84
2022/11/24 09:26:09;;;;;;;7.80;2.30;;;;;;;7.71;97.15;100194.84;5022644;28;20213;-83
2022/11/24 09:28:36;;;;;;;12.33;3.37;;;;;;;7.72;96.68;100191.25;5021509;28;20642;-83
2022/11/24 09:31:02;;;;;;;10.70;3.07;;;;;;;7.73;96.76;100199.13;5020451;28;20226;-83
2022/11/24 09:33:29;;;;;;;5.53;2.20;;;;;;;7.75;96.34;100196.38;5021302;28;20202;-83
2022/11/24 09:35:55;;;;;;;4.40;1.93;;;;;;;7.77;96.20;100194.50;5018715;28;20203;-83
2022/11/24 09:38:23;;;;;;;7.47;2.10;;;;;;;7.79;96.08;100189.97;5022631;28;20222;-83
2022/11/24 09:40:50;;;;;;;9.80;1.90;;;;;;;7.81;96.50;100198.69;5025643;28;20225;-82
2022/11/24 09:43:29;;;;;;;5.17;2.07;;;;;;;7.86;95.82;100193.97;5020882;28;20203;-83
2022/11/24 09:46:04;;;;;;;8.53;2.00;;;;;;;7.88;96.03;100194.72;5023696;28;20287;-83
2022/11/24 09:48:36;;;;;;;7.87;2.23;;;;;;;7.90;95.96;100193.66;5016518;28;20203;-83
2022/11/24 09:51:04;;;;;;;8.37;2.83;;;;;;;7.95;95.68;100201.34;5023876;28;20823;-83
2022/11/24 09:53:37;;;;;;;12.07;2.33;;;;;;;7.97;96.00;100196.81;5026940;28;20254;-83
2022/11/24 09:56:16;;;;;;;6.77;2.17;;;;;;;7.98;95.23;100194.06;5019007;28;20207;-83
2022/11/24 09:58:47;;;;;;;6.87;2.13;;;;;;;8.02;95.55;100197.41;5027797;28;20216;-83
2022/11/24 10:01:17;;;;;;;5.67;2.10;;;;;;;8.05;95.50;100199.03;5035094;28;20688;-83
2022/11/24 10:03:46;;;;;;;6.60;2.30;;;;;;;8.06;95.25;100201.56;5021878;28;20241;-83
2022/11/24 10:06:22;;;;;;;7.77;2.40;;;;;;;8.10;95.13;100199.56;5025630;28;20222;-83
2022/11/24 10:09:15;;;;;;;7.57;2.30;;;;;;;8.11;94.39;100207.44;5029602;28;20194;-81
2022/11/24 10:11:50;;;;;;;7.07;2.33;;;;;;;8.14;94.41;100204.63;5024636;28;20269;-81
2022/11/24 10:14:53;;;;;;;6.03;2.20;;;;;;;8.20;94.48;100208.72;5030176;28;20225;-82
2022/11/24 10:17:34;;;;;;;7.60;2.47;;;;;;;8.23;94.53;100201.41;5022945;28;20201;-83
2022/11/24 10:20:06;;;;;;;7.23;2.33;;;;;;;8.27;93.42;100208.22;5024571;28;20237;-82
2022/11/24 10:22:45;;;;;;;8.07;2.50;;;;;;;8.27;94.55;100207.38;5027788;28;20302;-82
2022/11/24 10:25:24;;;;;;;9.43;2.00;;;;;;;8.30;94.12;100221.31;5026395;28;20232;-82
2022/11/24 10:27:56;;;;;;;8.10;2.27;;;;;;;8.33;93.20;100213.19;5028008;28;20207;-81
2022/11/24 10:30:23;;;;;;;8.97;1.87;;;;;;;8.34;93.06;100206.94;5021385;28;20834;-82
2022/11/24 10:32:55;;;;;;;11.37;2.67;;;;;;;8.40;92.58;100223.44;5024363;28;20207;-82
2022/11/24 10:35:27;;;;;;;9.40;2.50;;;;;;;8.44;92.87;100212.53;5039295;28;20197;-82
2022/11/24 10:38:02;;;;;;;8.13;1.70;;;;;;;8.47;92.89;100215.00;5029991;28;20668;-82
2022/11/24 10:40:38;;;;;;;8.00;2.40;;;;;;;8.52;92.77;100206.75;5023360;28;20229;-82
2022/11/24 10:43:09;;;;;;;13.03;3.60;;;;;;;8.60;92.53;100217.75;5022991;28;20198;-82
2022/11/24 10:45:38;;;;;;;7.43;2.87;;;;;;;8.63;92.96;100215.75;5030384;28;20229;-82
2022/11/24 10:48:07;;;;;;;7.40;2.20;;;;;;;8.68;92.17;100216.34;5023832;28;20253;-82
2022/11/24 10:50:38;;;;;;;10.00;2.50;;;;;;;8.73;92.71;100220.50;5023137;28;20222;-82
2022/11/24 10:53:14;;;;;;;8.27;2.23;;;;;;;8.79;92.14;100215.66;5022147;28;20206;-82
2022/11/24 10:56:04;;;;;;;9.83;2.63;;;;;;;8.86;91.38;100216.97;5020516;28;20198;-82
2022/11/24 10:58:32;;;;;;;13.50;5.23;;;;;;;8.87;91.66;100224.00;5020454;28;20226;-82
2022/11/24 11:01:01;;;;;;;9.53;2.60;;;;;;;8.92;91.28;100223.72;5013614;28;20237;-82
2022/11/24 11:03:32;;;;;;;12.73;2.63;;;;;;;8.95;91.16;100226.19;5023149;28;20206;-82
2022/11/24 11:06:03;;;;;;;7.43;2.40;;;;;;;8.99;91.00;100231.19;5018985;28;20199;-82
2022/11/24 11:08:31;;;;;;;8.63;2.33;;;;;;;9.03;90.72;100227.38;5018218;28;20205;-82
2022/11/24 11:11:22;;;;;;;27.90;4.30;;;;;;;9.07;90.95;100235.16;5017699;28;20233;-82
2022/11/24 11:13:54;;;;;;;17.40;6.47;;;;;;;9.09;90.67;100227.97;5019830;28;20206;-82
2022/11/24 11:16:33;;;;;;;8.80;2.33;;;;;;;9.13;90.51;100240.09;5019266;28;20206;-82
2022/11/24 11:19:02;;;;;;;11.93;3.43;;;;;;;9.13;89.49;100245.41;5019353;28;20225;-82
2022/11/24 11:21:32;;;;;;;68.67;10.50;;;;;;;9.11;89.21;100244.66;5020432;28;20223;-82
2022/11/24 11:24:00;;;;;;;7.57;3.50;;;;;;;9.13;88.04;100243.59;5023477;28;20565;-82
2022/11/24 11:26:38;;;;;;;13.43;12.13;;;;;;;9.14;87.78;100247.09;5021089;28;20220;-82
2022/11/24 11:29:15;;;;;;;9.63;5.20;;;;;;;9.10;87.27;100243.81;5024589;28;20791;-82
2022/11/24 11:31:41;;;;;;;6.90;3.70;;;;;;;9.15;87.50;100254.09;5017646;28;20227;-82
2022/11/24 11:34:19;;;;;;;10.30;4.47;;;;;;;9.18;87.28;100261.88;5020175;28;20205;-82
2022/11/24 11:36:49;;;;;;;11.00;6.17;;;;;;;9.21;86.84;100264.34;5020223;28;20210;-81
2022/11/24 11:39:23;;;;;;;6.30;2.13;;;;;;;9.27;86.60;100266.63;5024060;28;20222;-82
2022/11/24 11:41:54;;;;;;;7.57;3.60;;;;;;;9.31;86.36;100271.66;5028691;28;20226;-82
2022/11/24 11:44:34;;;;;;;5.73;2.30;;;;;;;9.38;85.81;100266.78;5028382;28;20206;-82